Time;durP1;ratioP1;P1;durP2;ratioP2;P2;SDS_P1;SDS_P2;PMS_P1;PMS_P2;Temp;Humidity;BMP_temperature;BMP_pressure;BME280_temperature;BME280_humidity;BME280_pressure;Samples;Min_cycle;Max_cycle;Signal;HPM_P1;HPM_P2
2022/10/26 00:09:24;;;;;;;20.10;10.90;;;;;;;8.46;79.21;100465.81;30860435;28;96760;-63
2022/10/26 00:24:24;;;;;;;19.00;12.95;;;;;;;8.40;79.63;100486.78;30858993;28;97323;-63
2022/10/26 00:39:25;;;;;;;14.43;10.77;;;;;;;8.38;80.06;100502.00;30858092;28;96741;-62
2022/10/26 00:54:25;;;;;;;17.85;11.18;;;;;;;8.23;80.21;100496.34;30856799;28;113290;-63
2022/10/26 01:09:26;;;;;;;14.02;9.85;;;;;;;8.21;80.31;100483.22;30855979;28;96791;-62
2022/10/26 01:24:54;;;;;;;16.88;10.43;;;;;;;8.19;80.46;100492.31;30852923;28;97464;-64
2022/10/26 01:40:03;;;;;;;17.60;10.77;;;;;;;8.08;80.52;100482.75;30854735;28;96704;-64
2022/10/26 01:55:23;;;;;;;16.87;10.47;;;;;;;7.79;80.67;100473.94;30852769;28;96632;-64
2022/10/26 02:10:48;;;;;;;20.33;10.57;;;;;;;7.60;80.78;100472.19;30851820;28;96800;-64
2022/10/26 02:25:50;;;;;;;;;;;;;;;7.58;81.20;100468.00;30882152;28;99864;-63
2022/10/26 02:40:51;;;;;;;19.83;9.73;;;;;;;7.48;80.81;100467.16;30867686;28;96692;-63
2022/10/26 02:55:51;;;;;;;18.40;9.33;;;;;;;7.36;81.46;100470.00;30867628;28;96630;-64
2022/10/26 03:10:52;;;;;;;17.08;9.25;;;;;;;7.38;81.97;100485.75;30865687;28;96705;-64
2022/10/26 03:25:56;;;;;;;12.35;8.18;;;;;;;7.49;82.00;100495.34;30863645;28;96940;-64
2022/10/26 03:40:56;;;;;;;14.60;9.60;;;;;;;7.36;82.31;100499.16;30862275;28;96645;-64
2022/10/26 03:55:56;;;;;;;16.20;8.63;;;;;;;6.95;81.75;100501.94;30859822;28;110786;-63
2022/10/26 04:10:57;;;;;;;27.58;12.02;;;;;;;6.71;82.11;100497.06;30857882;28;114316;-64
2022/10/26 04:25:57;;;;;;;14.90;7.80;;;;;;;6.69;82.37;100493.72;30854211;28;97568;-63
2022/10/26 04:40:57;;;;;;;13.63;8.68;;;;;;;6.54;81.95;100497.75;30852286;28;97563;-64
2022/10/26 04:56:00;;;;;;;23.10;9.50;;;;;;;6.25;82.10;100520.50;30850906;28;97621;-64
2022/10/26 05:11:00;;;;;;;23.70;13.27;;;;;;;6.10;82.11;100517.38;30847877;28;97188;-62
2022/10/26 05:26:00;;;;;;;35.75;22.25;;;;;;;6.05;82.13;100514.28;30847552;28;98301;-63
2022/10/26 05:41:01;;;;;;;22.30;13.55;;;;;;;6.05;82.36;100532.81;30836220;28;117605;-62
2022/10/26 05:56:01;;;;;;;27.20;13.95;;;;;;;6.21;82.89;100528.84;30846608;28;97945;-64
2022/10/26 06:11:02;;;;;;;21.30;12.65;;;;;;;6.78;82.77;100553.78;30857608;28;96764;-64
2022/10/26 06:26:23;;;;;;;36.17;18.08;;;;;;;7.82;83.04;100564.78;30864564;28;97303;-64
2022/10/26 06:41:24;;;;;;;32.80;14.50;;;;;;;9.17;82.49;100582.06;30865191;28;97353;-61
2022/10/26 06:56:25;;;;;;;16.73;9.53;;;;;;;10.74;81.28;100578.59;30861573;28;96733;-63
2022/10/26 07:11:25;;;;;;;17.10;12.10;;;;;;;11.72;78.76;100582.41;30859081;28;97449;-62
2022/10/26 07:26:26;;;;;;;27.90;15.60;;;;;;;13.21;78.03;100579.00;30854372;28;120716;-62
2022/10/26 07:41:26;;;;;;;11.55;8.35;;;;;;;14.82;75.27;100585.97;30839938;28;97253;-62
2022/10/26 07:56:27;;;;;;;12.35;6.47;;;;;;;16.67;71.76;100589.50;30855525;28;116458;-62
2022/10/26 08:11:28;;;;;;;10.80;6.53;;;;;;;18.33;68.00;100591.75;30855756;28;97155;-66
2022/10/26 08:26:29;;;;;;;8.45;5.10;;;;;;;26.78;57.46;100593.78;30850759;28;109124;-63
2022/10/26 08:41:41;;;;;;;8.57;4.70;;;;;;;34.51;36.88;100605.84;30852075;28;97297;-64
2022/10/26 08:56:49;;;;;;;5.27;3.53;;;;;;;36.38;26.53;100595.81;30852206;28;96829;-64
2022/10/26 09:12:18;;;;;;;8.10;3.67;;;;;;;38.67;21.29;100612.56;30847131;28;97793;-63
2022/10/26 09:27:18;;;;;;;4.83;3.40;;;;;;;42.60;17.62;100609.28;30847741;28;96795;-62
2022/10/26 09:42:31;;;;;;;4.00;3.25;;;;;;;42.88;16.15;100613.66;30853225;28;98323;-62
2022/10/26 09:57:31;;;;;;;10.77;5.57;;;;;;;43.94;15.57;100628.41;30868253;28;97454;-63
2022/10/26 10:12:32;;;;;;;6.65;3.28;;;;;;;46.36;12.57;100624.34;30873862;28;97354;-65
2022/10/26 10:27:32;;;;;;;4.83;2.73;;;;;;;46.05;13.30;100612.72;30865198;28;101067;-63
2022/10/26 10:42:42;;;;;;;8.10;2.70;;;;;;;46.55;12.63;100611.03;30866753;28;97318;-63
2022/10/26 10:57:57;;;;;;;6.53;2.40;;;;;;;45.55;12.89;100615.53;30863036;28;97813;-63
2022/10/26 11:13:02;;;;;;;5.73;2.03;;;;;;;47.15;11.56;100608.34;30862209;28;98557;-64
2022/10/26 11:29:01;;;;;;;3.80;1.43;;;;;;;47.54;10.56;100598.84;30859323;28;96740;-63
2022/10/26 11:44:12;;;;;;;3.83;1.57;;;;;;;46.96;10.89;100590.72;30782373;28;97477;-64
2022/10/26 11:59:21;;;;;;;8.50;1.53;;;;;;;45.47;11.61;100592.25;30855486;28;98180;-64
2022/10/26 12:14:45;;;;;;;3.40;1.23;;;;;;;47.17;10.21;100583.38;30833127;28;97831;-64
2022/10/26 12:29:48;;;;;;;3.27;1.33;;;;;;;46.10;11.53;100572.91;30827212;28;98605;-66
2022/10/26 12:44:51;;;;;;;2.37;0.90;;;;;;;47.12;10.67;100573.31;30819326;28;98019;-63
2022/10/26 12:59:59;;;;;;;7.00;1.20;;;;;;;46.69;10.91;100570.75;30826383;28;97124;-62
2022/10/26 13:15:04;;;;;;;2.90;1.23;;;;;;;44.32;12.09;100553.31;30850274;28;97683;-69
2022/10/26 13:30:33;;;;;;;6.03;1.30;;;;;;;45.95;11.24;100548.81;30816431;28;98043;-62
2022/10/26 13:45:46;;;;;;;5.37;1.47;;;;;;;41.01;13.68;100556.31;30812679;28;98085;-63
2022/10/26 14:01:00;;;;;;;4.30;1.00;;;;;;;40.57;14.24;100553.78;30829954;28;97326;-63
2022/10/26 14:16:00;;;;;;;2.43;0.90;;;;;;;40.63;14.32;100549.53;30838716;28;98576;-63
2022/10/26 14:31:12;;;;;;;3.58;1.15;;;;;;;37.17;16.70;100548.00;30829556;28;97973;-64
2022/10/26 14:46:18;;;;;;;4.30;1.80;;;;;;;35.15;18.51;100556.59;30818991;28;97742;-62
2022/10/26 15:01:21;;;;;;;5.77;2.17;;;;;;;31.97;21.45;100558.97;30833380;28;97608;-63
2022/10/26 15:16:27;;;;;;;11.20;4.60;;;;;;;26.14;27.54;100556.63;30835467;28;97256;-61
2022/10/26 15:31:31;;;;;;;24.47;8.00;;;;;;;22.35;32.79;100550.31;30835915;28;98114;-61
2022/10/26 15:46:33;;;;;;;17.77;3.80;;;;;;;19.80;37.17;100572.06;30824160;28;98353;-63
2022/10/26 16:01:33;;;;;;;24.80;5.57;;;;;;;18.10;40.90;100577.72;30829203;28;98437;-63
2022/10/26 16:16:34;;;;;;;7.03;2.95;;;;;;;16.76;44.10;100592.88;30860730;28;118247;-63
2022/10/26 16:31:34;;;;;;;9.90;5.15;;;;;;;15.82;46.44;100613.00;30814429;28;110512;-63
2022/10/26 16:46:34;;;;;;;22.77;11.43;;;;;;;15.11;48.80;100630.66;30818236;28;102542;-68
2022/10/26 17:01:35;;;;;;;14.90;8.95;;;;;;;14.44;51.61;100655.78;30817010;28;120579;-65
2022/10/26 17:16:35;;;;;;;18.55;9.05;;;;;;;13.77;54.03;100658.25;30818923;28;97946;-62
2022/10/26 17:31:36;;;;;;;18.60;9.60;;;;;;;13.34;55.43;100668.53;30822091;28;97251;-63
2022/10/26 17:46:36;;;;;;;27.52;13.07;;;;;;;12.93;56.83;100687.47;30820978;28;98121;-62
2022/10/26 18:01:36;;;;;;;34.97;15.25;;;;;;;12.46;58.70;100691.81;30825281;28;104636;-65
2022/10/26 18:16:37;;;;;;;35.00;16.20;;;;;;;12.15;59.75;100713.88;30841754;28;97309;-65
2022/10/26 18:31:37;;;;;;;31.50;14.63;;;;;;;11.82;60.89;100722.69;30842199;28;98300;-65
2022/10/26 18:46:39;;;;;;;33.67;15.90;;;;;;;11.51;61.93;100728.63;30839511;28;106862;-62
2022/10/26 19:01:40;;;;;;;26.73;14.07;;;;;;;11.26;63.25;100732.22;30836432;28;97493;-65
2022/10/26 19:16:41;;;;;;;32.87;13.87;;;;;;;10.97;64.44;100747.59;30834790;28;97628;-65
2022/10/26 19:31:43;;;;;;;30.00;14.13;;;;;;;10.68;64.83;100771.13;30824900;28;98968;-65
2022/10/26 19:46:43;;;;;;;28.77;14.90;;;;;;;10.40;66.21;100793.41;30825293;28;97849;-65
2022/10/26 20:01:43;;;;;;;28.85;15.85;;;;;;;10.18;66.89;100791.16;30842617;28;97667;-63
2022/10/26 20:16:44;;;;;;;26.10;13.55;;;;;;;9.95;67.73;100808.44;30839259;28;97306;-64
2022/10/26 20:31:44;;;;;;;28.30;13.90;;;;;;;9.79;68.23;100822.41;30845544;28;96951;-64
2022/10/26 20:46:45;;;;;;;27.52;13.00;;;;;;;9.64;68.86;100821.22;30840421;28;109935;-63
2022/10/26 21:01:45;;;;;;;27.55;13.02;;;;;;;9.47;69.31;100826.34;30855494;28;96654;-64
2022/10/26 21:16:46;;;;;;;21.27;13.75;;;;;;;9.36;69.78;100833.69;30851372;28;118323;-64
2022/10/26 21:31:46;;;;;;;24.05;14.52;;;;;;;9.21;70.78;100830.66;30853653;28;96738;-64
2022/10/26 21:46:47;;;;;;;24.40;13.98;;;;;;;9.08;71.10;100838.97;30872100;28;97303;-63
2022/10/26 22:01:47;;;;;;;30.10;15.77;;;;;;;8.87;71.30;100857.75;30873919;28;96707;-64
2022/10/26 22:16:47;;;;;;;30.63;15.07;;;;;;;8.71;71.86;100853.84;30872013;28;98573;-64
2022/10/26 22:31:49;;;;;;;28.38;15.82;;;;;;;8.57;72.01;100851.63;30871390;28;97173;-63
2022/10/26 22:46:49;;;;;;;29.97;16.03;;;;;;;8.64;73.13;100863.38;30868564;28;97514;-63
2022/10/26 23:01:50;;;;;;;27.05;15.35;;;;;;;8.83;73.40;100865.19;30867548;28;114528;-63
2022/10/26 23:16:50;;;;;;;24.23;14.68;;;;;;;9.04;73.50;100878.28;30865786;28;96968;-63
2022/10/26 23:31:50;;;;;;;27.77;14.07;;;;;;;9.27;73.41;100877.94;30864661;28;115027;-63
2022/10/26 23:46:51;;;;;;;26.55;13.75;;;;;;;9.38;73.15;100890.22;30863004;28;109749;-64
